createdAt,value
2022-11-19T00:01:15.703Z,-1.88
2022-11-19T00:03:45.659Z,-1.90
2022-11-19T00:06:18.061Z,-1.94
2022-11-19T00:08:45.821Z,-1.93
2022-11-19T00:11:44.628Z,-1.95
2022-11-19T00:14:13.429Z,-1.98
2022-11-19T00:16:40.446Z,-2.01
2022-11-19T00:19:07.180Z,-2.03
2022-11-19T00:21:34.021Z,-2.04
2022-11-19T00:24:00.549Z,-2.05
2022-11-19T00:26:27.639Z,-2.07
2022-11-19T00:28:55.239Z,-2.10
2022-11-19T00:31:21.846Z,-2.13
2022-11-19T00:33:50.587Z,-2.15
2022-11-19T00:36:17.664Z,-2.16
2022-11-19T00:38:44.245Z,-2.18
2022-11-19T00:41:11.595Z,-2.19
2022-11-19T00:43:47.149Z,-2.19
2022-11-19T00:46:25.173Z,-2.22
2022-11-19T00:48:54.116Z,-2.24
2022-11-19T00:51:22.340Z,-2.26
2022-11-19T00:53:49.315Z,-2.28
2022-11-19T00:56:18.242Z,-2.27
2022-11-19T00:58:46.019Z,-2.29
2022-11-19T01:01:14.372Z,-2.32
2022-11-19T01:03:42.404Z,-2.33
2022-11-19T01:06:09.876Z,-2.36
2022-11-19T01:08:37.406Z,-2.38
2022-11-19T01:11:15.208Z,-2.39
2022-11-19T01:13:42.624Z,-2.41
2022-11-19T01:16:13.376Z,-2.41
2022-11-19T01:18:41.512Z,-2.43
2022-11-19T01:21:10.789Z,-2.45
2022-11-19T01:23:39.205Z,-2.45
2022-11-19T01:26:06.224Z,-2.47
2022-11-19T01:28:32.849Z,-2.48
2022-11-19T01:30:59.771Z,-2.48
2022-11-19T01:33:26.505Z,-2.50
2022-11-19T01:36:01.317Z,-2.53
2022-11-19T01:38:29.180Z,-2.54
2022-11-19T01:40:56.745Z,-2.55
2022-11-19T01:43:43.895Z,-2.55
2022-11-19T01:46:13.173Z,-2.57
2022-11-19T01:49:06.299Z,-2.56
2022-11-19T01:51:38.507Z,-2.59
2022-11-19T01:54:12.768Z,-2.59
2022-11-19T01:56:39.665Z,-2.61
2022-11-19T01:59:11.253Z,-2.60
2022-11-19T02:01:37.883Z,-2.62
2022-11-19T02:04:06.309Z,-2.63
2022-11-19T02:06:33.961Z,-2.65
2022-11-19T02:09:00.698Z,-2.65
2022-11-19T02:12:05.723Z,-2.68
2022-11-19T02:14:35.160Z,-2.68
2022-11-19T02:17:33.372Z,-2.68
2022-11-19T02:20:28.732Z,-2.68
2022-11-19T02:23:13.268Z,-2.70
2022-11-19T02:25:58.561Z,-2.72
2022-11-19T02:28:40.712Z,-2.72
2022-11-19T02:31:21.914Z,-2.75
2022-11-19T02:34:01.343Z,-2.77
2022-11-19T02:36:50.182Z,-2.77
2022-11-19T02:39:35.391Z,-2.81
2022-11-19T02:42:10.576Z,-2.85
2022-11-19T02:44:58.807Z,-2.89
2022-11-19T02:47:34.179Z,-2.92
2022-11-19T02:50:10.962Z,-2.94
2022-11-19T02:52:43.870Z,-2.96
2022-11-19T02:55:18.933Z,-2.99
2022-11-19T02:57:57.611Z,-3.01
2022-11-19T03:00:43.453Z,-3.03
2022-11-19T03:03:35.611Z,-3.05
2022-11-19T03:06:11.854Z,-3.06
2022-11-19T03:08:39.064Z,-3.09
2022-11-19T03:11:26.569Z,-3.11
2022-11-19T03:14:20.977Z,-3.13
2022-11-19T03:16:58.605Z,-3.17
2022-11-19T03:19:36.671Z,-3.18
2022-11-19T03:22:10.050Z,-3.22
2022-11-19T03:24:41.879Z,-3.23
2022-11-19T03:27:16.196Z,-3.26
2022-11-19T03:29:50.571Z,-3.29
2022-11-19T03:32:22.639Z,-3.31
2022-11-19T03:34:56.344Z,-3.33
2022-11-19T03:37:25.357Z,-3.36
2022-11-19T03:39:53.955Z,-3.37
2022-11-19T03:42:22.180Z,-3.41
2022-11-19T03:44:54.542Z,-3.44
2022-11-19T03:47:37.089Z,-3.47
2022-11-19T03:50:18.962Z,-3.48
2022-11-19T03:52:45.611Z,-3.48
2022-11-19T03:55:12.639Z,-3.49
2022-11-19T03:57:39.672Z,-3.49
2022-11-19T04:00:06.722Z,-3.51
2022-11-19T04:02:40.025Z,-3.51
2022-11-19T04:05:06.959Z,-3.51
2022-11-19T04:07:33.871Z,-3.51
2022-11-19T04:10:00.570Z,-3.54
2022-11-19T04:12:27.104Z,-3.55
2022-11-19T04:14:53.781Z,-3.58
2022-11-19T04:17:20.737Z,-3.60
2022-11-19T04:19:47.548Z,-3.63
2022-11-19T04:22:14.062Z,-3.63
2022-11-19T04:24:40.624Z,-3.64
2022-11-19T04:27:07.193Z,-3.66
2022-11-19T04:29:33.780Z,-3.66
2022-11-19T04:32:00.364Z,-3.67
2022-11-19T04:34:27.016Z,-3.68
2022-11-19T04:36:53.886Z,-3.69
2022-11-19T04:39:20.973Z,-3.70
2022-11-19T04:41:47.818Z,-3.69
2022-11-19T04:44:14.376Z,-3.70
2022-11-19T04:46:40.941Z,-3.72
2022-11-19T04:49:07.473Z,-3.72
2022-11-19T04:51:34.123Z,-3.73
2022-11-19T04:54:00.958Z,-3.72
2022-11-19T04:56:27.801Z,-3.72
2022-11-19T04:58:54.374Z,-3.73
2022-11-19T05:01:21.220Z,-3.73
2022-11-19T05:03:48.475Z,-3.72
2022-11-19T05:06:15.066Z,-3.73
2022-11-19T05:08:41.770Z,-3.75
2022-11-19T05:11:08.516Z,-3.72
2022-11-19T05:13:35.234Z,-3.72
2022-11-19T05:16:02.058Z,-3.72
2022-11-19T05:18:28.660Z,-3.72
2022-11-19T05:20:55.371Z,-3.72
2022-11-19T05:23:22.411Z,-3.71
2022-11-19T05:25:49.291Z,-3.70
2022-11-19T05:28:15.878Z,-3.70
2022-11-19T05:30:42.615Z,-3.69
2022-11-19T05:33:09.288Z,-3.70
2022-11-19T05:35:35.890Z,-3.70
2022-11-19T05:38:02.776Z,-3.69
2022-11-19T05:40:29.415Z,-3.71
2022-11-19T05:42:56.095Z,-3.72
2022-11-19T05:45:23.480Z,-3.74
2022-11-19T05:47:54.888Z,-3.77
2022-11-19T05:50:21.409Z,-3.79
2022-11-19T05:52:50.522Z,-3.81
2022-11-19T05:55:17.516Z,-3.81
2022-11-19T05:57:44.209Z,-3.83
2022-11-19T06:00:11.820Z,-3.83
2022-11-19T06:02:41.390Z,-3.83
2022-11-19T06:05:08.405Z,-3.83
2022-11-19T06:07:35.096Z,-3.83
2022-11-19T06:10:05.323Z,-3.83
2022-11-19T06:12:31.910Z,-3.78
2022-11-19T06:14:59.273Z,-3.79
2022-11-19T06:17:25.854Z,-3.78
2022-11-19T06:19:52.479Z,-3.76
2022-11-19T06:22:19.246Z,-3.74
2022-11-19T06:24:45.946Z,-3.75
2022-11-19T06:27:12.695Z,-3.74
2022-11-19T06:29:39.196Z,-3.73
2022-11-19T06:32:05.878Z,-3.71
2022-11-19T06:34:32.443Z,-3.71
2022-11-19T06:36:59.096Z,-3.70
2022-11-19T06:39:25.768Z,-3.69
2022-11-19T06:41:52.413Z,-3.67
2022-11-19T06:44:19.285Z,-3.67
2022-11-19T06:46:46.405Z,-3.68
2022-11-19T06:49:18.411Z,-3.68
2022-11-19T06:51:47.585Z,-3.69
2022-11-19T06:54:14.163Z,-3.69
2022-11-19T06:56:40.937Z,-3.68
2022-11-19T06:59:07.502Z,-3.65
2022-11-19T07:01:34.320Z,-3.64
2022-11-19T07:04:01.256Z,-3.63
2022-11-19T07:06:27.768Z,-3.62
2022-11-19T07:08:54.291Z,-3.61
2022-11-19T07:11:26.825Z,-3.60
2022-11-19T07:13:58.016Z,-3.59
2022-11-19T07:16:33.405Z,-3.57
2022-11-19T07:19:02.852Z,-3.56
2022-11-19T07:21:30.093Z,-3.55
2022-11-19T07:23:58.210Z,-3.54
2022-11-19T07:26:25.559Z,-3.52
2022-11-19T07:28:52.875Z,-3.50
2022-11-19T07:31:24.514Z,-3.48
2022-11-19T07:33:51.074Z,-3.45
2022-11-19T07:36:18.675Z,-3.44
2022-11-19T07:38:46.346Z,-3.38
2022-11-19T07:41:32.678Z,-3.35
2022-11-19T07:43:59.264Z,-3.34
2022-11-19T07:46:25.908Z,-3.31
2022-11-19T07:48:56.879Z,-3.26
2022-11-19T07:51:26.766Z,-3.23
2022-11-19T07:53:57.712Z,-3.20
2022-11-19T07:56:25.034Z,-3.17
2022-11-19T07:58:52.438Z,-3.11
2022-11-19T08:01:24.142Z,-3.09
2022-11-19T08:03:56.375Z,-3.03
2022-11-19T08:06:26.068Z,-3.01
2022-11-19T08:08:55.032Z,-2.97
2022-11-19T08:11:22.161Z,-2.93
2022-11-19T08:13:49.106Z,-2.89
2022-11-19T08:16:35.980Z,-2.85
2022-11-19T08:19:04.382Z,-2.82
2022-11-19T08:21:31.079Z,-2.78
2022-11-19T08:23:57.994Z,-2.75
2022-11-19T08:26:24.839Z,-2.72
2022-11-19T08:28:51.714Z,-2.66
2022-11-19T08:31:18.430Z,-2.61
2022-11-19T08:33:46.589Z,-2.57
2022-11-19T08:36:15.853Z,-2.52
2022-11-19T08:38:42.519Z,-2.48
2022-11-19T08:41:27.783Z,-2.42
2022-11-19T08:43:54.806Z,-2.35
2022-11-19T08:46:21.488Z,-2.32
2022-11-19T08:48:48.128Z,-2.26
2022-11-19T08:51:16.549Z,-2.19
2022-11-19T08:53:43.640Z,-2.15
2022-11-19T08:56:14.024Z,-2.09
2022-11-19T08:58:45.445Z,-2.02
2022-11-19T09:01:14.075Z,-1.96
2022-11-19T09:03:41.225Z,-1.90
2022-11-19T09:06:08.321Z,-1.83
2022-11-19T09:08:35.810Z,-1.77
2022-11-19T09:11:14.288Z,-1.71
2022-11-19T09:13:41.934Z,-1.66
2022-11-19T09:16:09.958Z,-1.61
2022-11-19T09:18:39.253Z,-1.55
2022-11-19T09:21:07.803Z,-1.48
2022-11-19T09:23:34.330Z,-1.41
2022-11-19T09:26:03.619Z,-1.37
2022-11-19T09:28:31.308Z,-1.30
2022-11-19T09:31:02.195Z,-1.25
2022-11-19T09:33:34.444Z,-1.18
2022-11-19T09:36:01.443Z,-1.13
2022-11-19T09:38:28.097Z,-1.06
2022-11-19T09:40:56.806Z,-1.00
2022-11-19T09:43:49.202Z,-0.96
2022-11-19T09:46:36.847Z,-0.88
2022-11-19T09:49:11.876Z,-0.80
2022-11-19T09:51:42.675Z,-0.70
2022-11-19T09:54:18.973Z,-0.63
2022-11-19T09:56:47.609Z,-0.58
2022-11-19T09:59:27.300Z,-0.53
2022-11-19T10:01:56.638Z,-0.50
2022-11-19T10:04:26.140Z,-0.45
2022-11-19T10:07:01.819Z,-0.39
2022-11-19T10:09:44.639Z,-0.32
2022-11-19T10:12:20.675Z,-0.27
2022-11-19T10:15:11.008Z,-0.24
2022-11-19T10:18:02.458Z,-0.21
2022-11-19T10:20:50.761Z,-0.21
2022-11-19T10:23:20.623Z,-0.19
2022-11-19T10:25:50.341Z,-0.16
2022-11-19T10:28:25.648Z,-0.10
2022-11-19T10:30:55.796Z,-0.03
2022-11-19T10:33:32.682Z,-0.03
2022-11-19T10:36:06.879Z,0.02
2022-11-19T10:38:40.572Z,0.09
2022-11-19T10:41:23.391Z,0.14
2022-11-19T10:43:59.752Z,0.20
2022-11-19T10:46:28.617Z,0.26
2022-11-19T10:48:58.394Z,0.29
2022-11-19T10:51:33.666Z,0.31
2022-11-19T10:54:04.356Z,0.33
2022-11-19T10:56:40.266Z,0.38
2022-11-19T10:59:12.375Z,0.42
2022-11-19T11:01:45.087Z,0.45
2022-11-19T11:04:26.209Z,0.48
2022-11-19T11:06:58.495Z,0.49
2022-11-19T11:09:37.027Z,0.49
2022-11-19T11:12:40.752Z,0.51
2022-11-19T11:15:15.734Z,0.51
2022-11-19T11:17:44.641Z,0.57
2022-11-19T11:20:14.120Z,0.63
2022-11-19T11:22:40.880Z,0.70
2022-11-19T11:25:27.226Z,0.72
2022-11-19T11:28:17.783Z,0.76
2022-11-19T11:31:00.953Z,0.80
2022-11-19T11:33:32.604Z,0.79
2022-11-19T11:36:03.437Z,0.80
2022-11-19T11:38:30.957Z,0.84
2022-11-19T11:41:35.300Z,0.91
2022-11-19T11:44:02.516Z,0.94
2022-11-19T11:46:51.180Z,0.99
2022-11-19T11:49:43.277Z,1.05
2022-11-19T11:52:09.872Z,1.10
2022-11-19T11:54:37.515Z,1.11
2022-11-19T11:57:25.162Z,1.17
2022-11-19T11:59:52.234Z,1.22
2022-11-19T12:02:21.250Z,1.26
2022-11-19T12:04:50.094Z,1.29
2022-11-19T12:07:51.574Z,1.31
2022-11-19T12:10:26.717Z,1.36
2022-11-19T12:13:44.407Z,1.44
2022-11-19T12:16:26.583Z,1.48
2022-11-19T12:19:24.721Z,1.54
2022-11-19T12:22:00.555Z,1.59
2022-11-19T12:24:30.133Z,1.62
2022-11-19T12:27:08.494Z,1.70
2022-11-19T12:29:38.049Z,1.75
2022-11-19T12:32:19.680Z,1.86
2022-11-19T12:34:55.092Z,1.96
2022-11-19T12:37:49.337Z,2.06
2022-11-19T12:40:42.407Z,2.13
2022-11-19T12:43:34.091Z,2.21
2022-11-19T12:46:25.149Z,2.23
2022-11-19T12:49:09.423Z,2.25
2022-11-19T12:51:44.335Z,2.29
2022-11-19T12:54:27.858Z,2.33
2022-11-19T12:57:19.187Z,2.38
2022-11-19T13:00:18.815Z,2.45
2022-11-19T13:03:12.370Z,2.46
2022-11-19T13:06:02.738Z,2.45
2022-11-19T13:08:49.847Z,2.46
2022-11-19T13:11:36.717Z,2.42
2022-11-19T13:14:11.338Z,2.36
2022-11-19T13:16:38.012Z,2.31
2022-11-19T13:19:20.208Z,2.26
2022-11-19T13:21:55.984Z,2.24
2022-11-19T13:24:35.236Z,2.20
2022-11-19T13:27:05.390Z,2.18
2022-11-19T13:29:54.261Z,2.16
2022-11-19T13:32:44.234Z,2.14
2022-11-19T13:35:18.582Z,2.11
2022-11-19T13:37:58.273Z,2.08
2022-11-19T13:40:37.268Z,2.03
2022-11-19T13:43:32.072Z,1.99
2022-11-19T13:46:16.540Z,1.95
2022-11-19T13:48:54.710Z,1.92
2022-11-19T13:51:39.155Z,1.91
2022-11-19T13:54:08.243Z,1.90
2022-11-19T13:56:40.425Z,1.91
2022-11-19T13:59:08.543Z,1.91
2022-11-19T14:01:55.906Z,1.88
2022-11-19T14:04:32.692Z,1.85
2022-11-19T14:06:59.302Z,1.82
2022-11-19T14:09:46.115Z,1.78
2022-11-19T14:12:34.640Z,1.74
2022-11-19T14:15:46.464Z,1.71
2022-11-19T14:18:43.327Z,1.68
2022-11-19T14:21:44.262Z,1.66
2022-11-19T14:24:45.051Z,1.63
2022-11-19T14:27:20.891Z,1.61
2022-11-19T14:29:47.348Z,1.58
2022-11-19T14:32:13.772Z,1.56
2022-11-19T14:39:53.955Z,1.54
2022-11-19T14:42:21.912Z,1.52
2022-11-19T14:45:04.077Z,1.49
2022-11-19T14:47:43.349Z,1.47
2022-11-19T14:50:26.008Z,1.45
2022-11-19T14:52:56.094Z,1.44
2022-11-19T14:55:26.062Z,1.43
2022-11-19T14:58:02.411Z,1.38
2022-11-19T15:00:28.996Z,1.36
2022-11-19T15:02:56.784Z,1.35
2022-11-19T15:05:31.299Z,1.33
2022-11-19T15:08:43.141Z,1.29
2022-11-19T15:11:14.421Z,1.25
2022-11-19T15:13:48.999Z,1.22
2022-11-19T15:16:27.769Z,1.19
2022-11-19T15:19:00.326Z,1.15
2022-11-19T15:21:51.132Z,1.11
2022-11-19T15:24:27.213Z,1.06
2022-11-19T15:26:53.861Z,1.03
2022-11-19T15:30:05.235Z,1.01
2022-11-19T15:32:50.426Z,0.99
2022-11-19T15:35:30.932Z,0.98
2022-11-19T15:38:04.325Z,0.95
2022-11-19T15:40:36.269Z,0.93
2022-11-19T15:43:15.146Z,0.91
2022-11-19T15:46:03.597Z,0.89
2022-11-19T15:48:32.946Z,0.86
2022-11-19T15:51:01.172Z,0.82
2022-11-19T15:53:28.293Z,0.81
2022-11-19T15:55:59.836Z,0.79
2022-11-19T15:58:36.913Z,0.74
2022-11-19T16:01:04.487Z,0.72
2022-11-19T16:03:32.535Z,0.68
2022-11-19T16:06:03.631Z,0.68
2022-11-19T16:08:30.676Z,0.65
2022-11-19T16:11:20.579Z,0.64
2022-11-19T16:14:10.952Z,0.61
2022-11-19T16:16:56.490Z,0.61
2022-11-19T16:19:23.773Z,0.61
2022-11-19T16:21:58.879Z,0.61
2022-11-19T16:24:46.266Z,0.61
2022-11-19T16:27:20.529Z,0.62
2022-11-19T16:29:47.224Z,0.61
2022-11-19T16:32:21.821Z,0.62
2022-11-19T16:34:48.558Z,0.61
2022-11-19T16:37:21.774Z,0.61
2022-11-19T16:39:53.228Z,0.60
2022-11-19T16:42:26.807Z,0.59
2022-11-19T16:45:08.451Z,0.59
2022-11-19T16:47:40.037Z,0.56
2022-11-19T16:50:29.551Z,0.54
2022-11-19T16:52:56.383Z,0.53
2022-11-19T16:55:25.910Z,0.50
2022-11-19T16:57:56.874Z,0.48
2022-11-19T17:00:28.536Z,0.47
2022-11-19T17:02:55.410Z,0.46
2022-11-19T17:05:24.864Z,0.44
2022-11-19T17:08:05.764Z,0.42
2022-11-19T17:10:34.161Z,0.41
2022-11-19T17:13:28.255Z,0.42
2022-11-19T17:15:55.153Z,0.42
2022-11-19T17:18:34.449Z,0.43
2022-11-19T17:21:08.998Z,0.43
2022-11-19T17:23:48.259Z,0.43
2022-11-19T17:26:22.500Z,0.40
2022-11-19T17:28:52.243Z,0.40
2022-11-19T17:31:27.400Z,0.39
2022-11-19T17:34:07.344Z,0.39
2022-11-19T17:36:34.083Z,0.37
2022-11-19T17:39:00.733Z,0.38
2022-11-19T17:41:48.317Z,0.39
2022-11-19T17:44:34.679Z,0.38
2022-11-19T17:47:07.383Z,0.38
2022-11-19T17:49:45.805Z,0.38
2022-11-19T17:52:24.685Z,0.38
2022-11-19T17:54:53.942Z,0.37
2022-11-19T17:57:20.768Z,0.35
2022-11-19T17:59:47.430Z,0.33
2022-11-19T18:02:17.029Z,0.34
2022-11-19T18:04:45.306Z,0.33
2022-11-19T18:07:12.575Z,0.34
2022-11-19T18:09:40.561Z,0.34
2022-11-19T18:12:12.517Z,0.35
2022-11-19T18:14:39.200Z,0.34
2022-11-19T18:17:06.004Z,0.34
2022-11-19T18:19:33.789Z,0.33
2022-11-19T18:22:00.469Z,0.32
2022-11-19T18:24:27.326Z,0.31
2022-11-19T18:26:54.031Z,0.31
2022-11-19T18:29:21.192Z,0.31
2022-11-19T18:31:50.892Z,0.30
2022-11-19T18:34:20.484Z,0.33
2022-11-19T18:36:47.187Z,0.32
2022-11-19T18:39:14.601Z,0.32
2022-11-19T18:41:41.857Z,0.34
2022-11-19T18:44:32.485Z,0.34
2022-11-19T18:47:03.941Z,0.35
2022-11-19T18:49:30.852Z,0.36
2022-11-19T18:51:57.494Z,0.38
2022-11-19T18:54:24.191Z,0.37
2022-11-19T18:56:51.062Z,0.36
2022-11-19T18:59:18.327Z,0.35
2022-11-19T19:01:45.404Z,0.37
2022-11-19T19:04:14.430Z,0.36
2022-11-19T19:06:41.861Z,0.33
2022-11-19T19:09:10.362Z,0.30
2022-11-19T19:11:56.932Z,0.25
2022-11-19T19:14:23.520Z,0.19
2022-11-19T19:16:51.009Z,0.14
2022-11-19T19:19:19.992Z,0.09
2022-11-19T19:21:47.409Z,0.03
2022-11-19T19:24:14.551Z,-0.01
2022-11-19T19:26:41.661Z,-0.03
2022-11-19T19:29:08.506Z,-0.07
2022-11-19T19:31:36.169Z,-0.11
2022-11-19T19:34:03.319Z,-0.15
2022-11-19T19:36:30.397Z,-0.17
2022-11-19T19:38:57.166Z,-0.20
2022-11-19T19:41:26.104Z,-0.23
2022-11-19T19:43:54.764Z,-0.26
2022-11-19T19:46:23.559Z,-0.29
2022-11-19T19:48:52.478Z,-0.30
2022-11-19T19:51:21.103Z,-0.32
2022-11-19T19:53:48.389Z,-0.34
2022-11-19T19:56:19.093Z,-0.36
2022-11-19T19:58:47.120Z,-0.39
2022-11-19T20:01:16.757Z,-0.40
2022-11-19T20:03:44.755Z,-0.43
2022-11-19T20:06:13.422Z,-0.46
2022-11-19T20:08:40.899Z,-0.48
2022-11-19T20:11:13.486Z,-0.50
2022-11-19T20:13:40.946Z,-0.53
2022-11-19T20:16:14.576Z,-0.56
2022-11-19T20:18:45.688Z,-0.59
2022-11-19T20:21:15.561Z,-0.59
2022-11-19T20:23:42.697Z,-0.61
2022-11-19T20:26:18.002Z,-0.65
2022-11-19T20:28:45.401Z,-0.68
2022-11-19T20:31:18.418Z,-0.72
2022-11-19T20:33:46.621Z,-0.74
2022-11-19T20:36:15.718Z,-0.76
2022-11-19T20:38:44.260Z,-0.78
2022-11-19T20:41:33.368Z,-0.79
2022-11-19T20:44:20.343Z,-0.80
2022-11-19T20:46:47.237Z,-0.81
2022-11-19T20:49:16.941Z,-0.81
2022-11-19T20:51:45.188Z,-0.82
2022-11-19T20:54:12.276Z,-0.83
2022-11-19T20:56:39.980Z,-0.83
2022-11-19T20:59:06.921Z,-0.84
2022-11-19T21:01:34.581Z,-0.83
2022-11-19T21:04:01.574Z,-0.86
2022-11-19T21:06:28.640Z,-0.87
2022-11-19T21:08:55.995Z,-0.87
2022-11-19T21:11:22.664Z,-0.89
2022-11-19T21:13:49.463Z,-0.91
2022-11-19T21:16:24.054Z,-0.93
2022-11-19T21:18:51.308Z,-0.94
2022-11-19T21:21:19.705Z,-0.97
2022-11-19T21:23:46.746Z,-0.97
2022-11-19T21:26:19.775Z,-1.00
2022-11-19T21:28:49.342Z,-1.02
2022-11-19T21:31:18.122Z,-1.03
2022-11-19T21:33:44.724Z,-1.03
2022-11-19T21:36:12.500Z,-1.06
2022-11-19T21:38:39.492Z,-1.07
2022-11-19T21:41:07.028Z,-1.09
2022-11-19T21:43:33.930Z,-1.09
2022-11-19T21:46:00.541Z,-1.10
2022-11-19T21:48:27.290Z,-1.11
2022-11-19T21:50:54.289Z,-1.13
2022-11-19T21:53:21.214Z,-1.13
2022-11-19T21:55:48.403Z,-1.13
2022-11-19T21:58:15.488Z,-1.15
2022-11-19T22:00:43.892Z,-1.16
2022-11-19T22:03:10.630Z,-1.17
2022-11-19T22:05:37.203Z,-1.17
2022-11-19T22:08:03.940Z,-1.17
2022-11-19T22:10:30.719Z,-1.19
2022-11-19T22:13:00.122Z,-1.19
2022-11-19T22:15:27.189Z,-1.20
2022-11-19T22:17:54.842Z,-1.21
2022-11-19T22:20:21.818Z,-1.22
2022-11-19T22:22:48.420Z,-1.24
2022-11-19T22:25:15.319Z,-1.23
2022-11-19T22:27:42.034Z,-1.24
2022-11-19T22:30:10.055Z,-1.26
2022-11-19T22:32:37.038Z,-1.28
2022-11-19T22:35:04.911Z,-1.30
2022-11-19T22:37:31.980Z,-1.32
2022-11-19T22:39:58.646Z,-1.33
2022-11-19T22:42:25.365Z,-1.33
2022-11-19T22:44:52.373Z,-1.33
2022-11-19T22:47:19.070Z,-1.35
2022-11-19T22:49:45.647Z,-1.36
2022-11-19T22:52:14.570Z,-1.34
2022-11-19T22:54:41.967Z,-1.30
2022-11-19T22:57:09.698Z,-1.25
2022-11-19T22:59:36.760Z,-1.15
2022-11-19T23:02:03.827Z,-1.05
2022-11-19T23:04:30.484Z,-0.94
2022-11-19T23:06:57.238Z,-0.83
2022-11-19T23:09:24.239Z,-0.74
2022-11-19T23:12:09.833Z,-0.66
2022-11-19T23:14:36.655Z,-0.58
2022-11-19T23:17:04.430Z,-0.52
2022-11-19T23:19:31.204Z,-0.48
2022-11-19T23:21:57.877Z,-0.45
2022-11-19T23:24:24.499Z,-0.41
2022-11-19T23:26:51.103Z,-0.38
2022-11-19T23:29:17.880Z,-0.35
2022-11-19T23:31:44.728Z,-0.32
2022-11-19T23:34:11.840Z,-0.32
2022-11-19T23:36:40.486Z,-0.34
2022-11-19T23:39:12.701Z,-0.33
2022-11-19T23:41:39.524Z,-0.35
2022-11-19T23:44:06.210Z,-0.35
2022-11-19T23:46:34.897Z,-0.33
2022-11-19T23:49:03.187Z,-0.28
2022-11-19T23:51:32.548Z,-0.21
2022-11-19T23:53:59.313Z,-0.18
2022-11-19T23:56:26.895Z,-0.10
2022-11-19T23:58:53.835Z,-0.07
